Salt Air — WDJ7579 — position and weather

sailwx.info

Track history (hours):
 
Tides and Currents Weather Stations Pressure Air Temp Water Temp Dewpoint Dewpoint Depression Visibility Wind Speed Wind Dir Waves Ship Positions

Salt Air

Owner: Powers, Douglas J, Miami, FL. More information available from US FCC via Universal Licensing System and Coast Guard Vessel Documentation Center.

Last reported at 2018-Jun-18 11:01 UTC. Time now 2018-Aug-14 07:01 UTC.
Position N 18°22' W 064°45'.
Warning: this ship's position is 56 days out of date.

Length 15 m.

Type: Sailing vessel. MMSI: 368008070.

Date/timePositionNaut miles runAvg speedWind from/ knotsBaromVisibWave heightAir tempDewpointWater temp
2018-Jun-18 11:01N 18°22' W 064°45'0 0.0
2018-Jun-18 10:55N 18°22' W 064°45'0 0.0
2018-Jun-18 10:13N 18°22' W 064°45'0 0.0
2018-Jun-18 09:07N 18°22' W 064°45'0 0.0
2018-Jun-18 08:55N 18°22' W 064°45'0 0.0
2018-Jun-18 08:25N 18°22' W 064°45'0 0.0
2018-Jun-18 07:55N 18°22' W 064°45'0 0.0
2018-Jun-18 07:25N 18°22' W 064°45'0 0.0
2018-Jun-18 06:58N 18°22' W 064°45'0 0.0
2018-Jun-18 06:19N 18°22' W 064°45'0 0.0
2018-Jun-18 05:49N 18°22' W 064°45'0 0.0
2018-Jun-18 05:25N 18°22' W 064°45'0 0.0
2018-Jun-18 04:55N 18°22' W 064°45'0 0.0
2018-Jun-18 04:19N 18°22' W 064°45'0 0.0
2018-Jun-18 03:55N 18°22' W 064°45'0 0.0
2018-Jun-18 03:25N 18°22' W 064°45'0 0.0
2018-Jun-18 02:55N 18°22' W 064°45'0 0.0
2018-Jun-18 01:01N 18°22' W 064°45'0 0.1
2018-Jun-18 00:55N 18°22' W 064°45'0 0.0
2018-Jun-18 00:25N 18°22' W 064°45'0 0.0
2018-Jun-17 23:55N 18°22' W 064°45'0 0.0
2018-Jun-17 23:25N 18°22' W 064°45'  
2018-Jun-12 12:32N 18°26' W 064°40'0 0.0
2018-Jun-12 11:14N 18°26' W 064°40'0 0.0
2018-Jun-12 10:44N 18°26' W 064°40'0 0.0
2018-Jun-12 10:14N 18°26' W 064°40'0 0.0
2018-Jun-12 09:56N 18°26' W 064°40'0 0.0
2018-Jun-12 09:26N 18°26' W 064°40'0 0.0
2018-Jun-12 08:56N 18°26' W 064°40'0 0.0
2018-Jun-12 08:14N 18°26' W 064°40'0 0.0
2018-Jun-12 07:50N 18°26' W 064°40'0 0.0
2018-Jun-12 07:26N 18°26' W 064°40'0 0.0
2018-Jun-12 06:53N 18°26' W 064°40'0 0.0
2018-Jun-12 06:26N 18°26' W 064°40'0 0.0
2018-Jun-12 05:47N 18°26' W 064°40'0 0.0
2018-Jun-12 05:19N 18°26' W 064°40'0 0.0
2018-Jun-12 04:49N 18°26' W 064°40'0 0.0
2018-Jun-12 04:22N 18°26' W 064°40'0 0.0
2018-Jun-12 03:58N 18°26' W 064°40'0 0.0
2018-Jun-12 03:25N 18°26' W 064°40'0 0.0
2018-Jun-12 02:58N 18°26' W 064°40'0 0.0
2018-Jun-12 02:21N 18°26' W 064°40'0 0.0
2018-Jun-12 01:56N 18°26' W 064°40'0 0.0
2018-Jun-11 23:08N 18°26' W 064°40'0 0.0
2018-Jun-11 22:57N 18°26' W 064°40'0 0.0
2018-Jun-11 22:21N 18°26' W 064°40'0 0.0
2018-Jun-11 21:57N 18°26' W 064°40'0 0.0
2018-Jun-11 20:36N 18°26' W 064°40'0 0.0
2018-Jun-11 20:24N 18°26' W 064°40'0 0.0
2018-Jun-11 09:44N 18°26' W 064°40'0 0.0
2018-Jun-11 09:17N 18°26' W 064°40'0 0.0
2018-Jun-11 06:26N 18°26' W 064°40'0 0.0
2018-Jun-11 05:56N 18°26' W 064°40'0 0.0
2018-Jun-11 05:26N 18°26' W 064°40'0 0.0
2018-Jun-11 04:41N 18°26' W 064°40'0 0.0
2018-Jun-11 04:11N 18°26' W 064°40'0 0.0
2018-Jun-11 03:47N 18°26' W 064°40'0 0.0
2018-Jun-11 03:23N 18°26' W 064°40'0 0.0
2018-Jun-11 02:05N 18°26' W 064°40'0 0.0
2018-Jun-11 01:47N 18°26' W 064°40'0 0.0
2018-Jun-11 01:27N 18°26' W 064°40'0 0.0
2018-Jun-11 00:51N 18°26' W 064°40'0 0.0
2018-Jun-11 00:24N 18°26' W 064°40'0 0.0
2018-Jun-10 23:57N 18°26' W 064°40'0 0.0
2018-Jun-10 23:21N 18°26' W 064°40'0 0.0
2018-Jun-10 22:57N 18°26' W 064°40'0 0.0
2018-Jun-10 22:21N 18°26' W 064°40'0 0.0
2018-Jun-10 21:51N 18°26' W 064°40'0 0.0
2018-Jun-10 21:27N 18°26' W 064°40'0 0.0
2018-Jun-10 20:57N 18°26' W 064°40'0 0.0
2018-Jun-10 20:21N 18°26' W 064°40'0 0.0
2018-Jun-10 16:28N 18°26' W 064°40'0 0.0
2018-Jun-10 15:49N 18°26' W 064°40'1 4.7
2018-Jun-10 15:31N 18°26' W 064°41'2 3.7
2018-Jun-10 14:59N 18°24' W 064°42'4 3.9
2018-Jun-10 13:59N 18°23' W 064°39'1 0.0
2018-Jun-08 19:32N 18°24' W 064°38'0 5.6
2018-Jun-08 19:30N 18°24' W 064°38'3 5.2
2018-Jun-08 19:00N 18°23' W 064°35'2 4.7
2018-Jun-08 18:29N 18°24' W 064°33'  
Track history (hours):
 
Tides and Currents Weather Stations Pressure Air Temp Water Temp Dewpoint Dewpoint Depression Visibility Wind Speed Wind Dir Waves Ship Positions

Salt Air

Owner: Powers, Douglas J, Miami, FL. More information available from US FCC via Universal Licensing System and Coast Guard Vessel Documentation Center.

Last reported at 2018-Jun-18 11:01 UTC. Time now 2018-Aug-14 07:01 UTC.
Position N 18°22' W 064°45'.
Warning: this ship's position is 56 days out of date.

Length 15 m.

Type: Sailing vessel. MMSI: 368008070.

Date/timePositionNaut miles runAvg speedWind from/ knotsBaromVisibWave heightAir tempDewpointWater temp
2018-Jun-18 11:01N 18°22' W 064°45'0 0.0
2018-Jun-18 10:55N 18°22' W 064°45'0 0.0
2018-Jun-18 10:13N 18°22' W 064°45'0 0.0
2018-Jun-18 09:07N 18°22' W 064°45'0 0.0
2018-Jun-18 08:55N 18°22' W 064°45'0 0.0
2018-Jun-18 08:25N 18°22' W 064°45'0 0.0
2018-Jun-18 07:55N 18°22' W 064°45'0 0.0
2018-Jun-18 07:25N 18°22' W 064°45'0 0.0
2018-Jun-18 06:58N 18°22' W 064°45'0 0.0
2018-Jun-18 06:19N 18°22' W 064°45'0 0.0
2018-Jun-18 05:49N 18°22' W 064°45'0 0.0
2018-Jun-18 05:25N 18°22' W 064°45'0 0.0
2018-Jun-18 04:55N 18°22' W 064°45'0 0.0
2018-Jun-18 04:19N 18°22' W 064°45'0 0.0
2018-Jun-18 03:55N 18°22' W 064°45'0 0.0
2018-Jun-18 03:25N 18°22' W 064°45'0 0.0
2018-Jun-18 02:55N 18°22' W 064°45'0 0.0
2018-Jun-18 01:01N 18°22' W 064°45'0 0.1
2018-Jun-18 00:55N 18°22' W 064°45'0 0.0
2018-Jun-18 00:25N 18°22' W 064°45'0 0.0
2018-Jun-17 23:55N 18°22' W 064°45'0 0.0
2018-Jun-17 23:25N 18°22' W 064°45'  
2018-Jun-12 12:32N 18°26' W 064°40'0 0.0
2018-Jun-12 11:14N 18°26' W 064°40'0 0.0
2018-Jun-12 10:44N 18°26' W 064°40'0 0.0
2018-Jun-12 10:14N 18°26' W 064°40'0 0.0
2018-Jun-12 09:56N 18°26' W 064°40'0 0.0
2018-Jun-12 09:26N 18°26' W 064°40'0 0.0
2018-Jun-12 08:56N 18°26' W 064°40'0 0.0
2018-Jun-12 08:14N 18°26' W 064°40'0 0.0
2018-Jun-12 07:50N 18°26' W 064°40'0 0.0
2018-Jun-12 07:26N 18°26' W 064°40'0 0.0
2018-Jun-12 06:53N 18°26' W 064°40'0 0.0
2018-Jun-12 06:26N 18°26' W 064°40'0 0.0
2018-Jun-12 05:47N 18°26' W 064°40'0 0.0
2018-Jun-12 05:19N 18°26' W 064°40'0 0.0
2018-Jun-12 04:49N 18°26' W 064°40'0 0.0
2018-Jun-12 04:22N 18°26' W 064°40'0 0.0
2018-Jun-12 03:58N 18°26' W 064°40'0 0.0
2018-Jun-12 03:25N 18°26' W 064°40'0 0.0
2018-Jun-12 02:58N 18°26' W 064°40'0 0.0
2018-Jun-12 02:21N 18°26' W 064°40'0 0.0
2018-Jun-12 01:56N 18°26' W 064°40'0 0.0
2018-Jun-11 23:08N 18°26' W 064°40'0 0.0
2018-Jun-11 22:57N 18°26' W 064°40'0 0.0
2018-Jun-11 22:21N 18°26' W 064°40'0 0.0
2018-Jun-11 21:57N 18°26' W 064°40'0 0.0
2018-Jun-11 20:36N 18°26' W 064°40'0 0.0
2018-Jun-11 20:24N 18°26' W 064°40'0 0.0
2018-Jun-11 09:44N 18°26' W 064°40'0 0.0
2018-Jun-11 09:17N 18°26' W 064°40'0 0.0
2018-Jun-11 06:26N 18°26' W 064°40'0 0.0
2018-Jun-11 05:56N 18°26' W 064°40'0 0.0
2018-Jun-11 05:26N 18°26' W 064°40'0 0.0
2018-Jun-11 04:41N 18°26' W 064°40'0 0.0
2018-Jun-11 04:11N 18°26' W 064°40'0 0.0
2018-Jun-11 03:47N 18°26' W 064°40'0 0.0
2018-Jun-11 03:23N 18°26' W 064°40'0 0.0
2018-Jun-11 02:05N 18°26' W 064°40'0 0.0
2018-Jun-11 01:47N 18°26' W 064°40'0 0.0
2018-Jun-11 01:27N 18°26' W 064°40'0 0.0
2018-Jun-11 00:51N 18°26' W 064°40'0 0.0
2018-Jun-11 00:24N 18°26' W 064°40'0 0.0
2018-Jun-10 23:57N 18°26' W 064°40'0 0.0
2018-Jun-10 23:21N 18°26' W 064°40'0 0.0
2018-Jun-10 22:57N 18°26' W 064°40'0 0.0
2018-Jun-10 22:21N 18°26' W 064°40'0 0.0
2018-Jun-10 21:51N 18°26' W 064°40'0 0.0
2018-Jun-10 21:27N 18°26' W 064°40'0 0.0
2018-Jun-10 20:57N 18°26' W 064°40'0 0.0
2018-Jun-10 20:21N 18°26' W 064°40'0 0.0
2018-Jun-10 16:28N 18°26' W 064°40'0 0.0
2018-Jun-10 15:49N 18°26' W 064°40'1 4.7
2018-Jun-10 15:31N 18°26' W 064°41'2 3.7
2018-Jun-10 14:59N 18°24' W 064°42'4 3.9
2018-Jun-10 13:59N 18°23' W 064°39'1 0.0
2018-Jun-08 19:32N 18°24' W 064°38'0 5.6
2018-Jun-08 19:30N 18°24' W 064°38'3 5.2
2018-Jun-08 19:00N 18°23' W 064°35'2 4.7
2018-Jun-08 18:29N 18°24' W 064°33'  

Dump ship's entire track history